Indianapolis/Eagle Creek Airpark, Indiana
Current Conditions -  °F | °C
As of 8:53 AM on Saturday 25 Oct 2014 (Local Time) from KEYE Reporting Station
Overcast Overcast  
Wind Chill: 56°   Ceiling: 1800
Heat Index: 56°   Visibility: 10mi
Dew Point: 51°   Wind: 5mph
Humidity: 84%   Direction: 230°SW
Pressure: 29.97"   Gusts: NA
Location:  39.83°N, 86.3°W
Report Text: KEYE 251253Z AUTO 23004KT 10SM OVC018 13/11 A2997 RMK AO2 SLP148 T01330106
Loading
Personal Weather Stations






























Interactive Weather Map New forecast layout! Learn more

10-Day Weather Forecast

Advertisements
Track Severe Weather on mobile